Paterson, Washington
Current Conditions -  °F | °C
As of 8:53 AM on Saturday 25 Oct 2014 (Local Time) from KHRI Reporting Station
Haze Haze  
Wind Chill: 51°   Ceiling: 1300
Heat Index: 51°   Visibility: 6mi
Dew Point: 48°   Wind: 0mph
Humidity: 89%   Direction: NA
Pressure: 29.62"   Gusts: NA
Location:  45.94°N, 119.6°W
Report Text: KHRI 251553Z AUTO 00000KT 6SM BR OVC013 11/09 A2962 RMK AO2 SLP028 T01060089
Loading
Personal Weather Stations






























Interactive Weather Map
Tropical Storm Tracking
New forecast layout! Learn more

10-Day Weather Forecast

Advertisements
Track Severe Weather on mobile